Time;durP1;ratioP1;P1;durP2;ratioP2;P2;SDS_P1;SDS_P2;PMS_P1;PMS_P2;Temp;Humidity;BMP_temperature;BMP_pressure;BME280_temperature;BME280_humidity;BME280_pressure;Samples;Min_cycle;Max_cycle;Signal;HPM_P1;HPM_P2
2022/02/09 00:00:42;;;;;;;8.53;3.43;;;6.20;99.90;;;;;;5053591;28;20204;-65
2022/02/09 00:03:12;;;;;;;8.60;4.37;;;6.20;99.90;;;;;;5053800;28;20221;-67
2022/02/09 00:05:54;;;;;;;5.93;2.80;;;6.20;99.90;;;;;;5049093;28;20208;-66
2022/02/09 00:08:23;;;;;;;6.57;2.97;;;6.10;99.90;;;;;;5053938;28;20293;-66
2022/02/09 00:10:56;;;;;;;3.83;2.70;;;6.10;99.90;;;;;;5054179;28;20659;-66
2022/02/09 00:16:15;;;;;;;5.47;2.70;;;6.00;99.90;;;;;;5055584;28;20198;-67
2022/02/09 00:18:51;;;;;;;7.27;2.73;;;6.00;99.90;;;;;;5051067;28;20236;-66
2022/02/09 00:32:51;;;;;;;6.40;2.80;;;5.80;99.90;;;;;;5052679;28;20219;-65
2022/02/09 00:41:23;;;;;;;4.90;2.60;;;5.80;99.90;;;;;;5047595;28;20210;-65
2022/02/09 01:11:40;;;;;;;7.00;2.67;;;5.50;99.90;;;;;;5051485;28;20681;-66
2022/02/09 01:38:58;;;;;;;4.70;2.87;;;5.70;99.90;;;;;;5052759;28;20290;-66
2022/02/09 01:50:58;;;;;;;5.87;2.83;;;5.70;99.90;;;;;;5046331;28;20237;-66
2022/02/09 01:55:41;;;;;;;8.73;2.90;;;5.70;99.90;;;;;;5054546;28;20689;-66
2022/02/09 01:58:08;;;;;;;6.03;2.70;;;5.70;99.90;;;;;;5056719;28;20244;-66
2022/02/09 02:00:37;;;;;;;4.20;2.63;;;5.70;99.90;;;;;;5055788;28;20297;-69
2022/02/09 02:03:04;;;;;;;7.00;3.00;;;5.60;99.90;;;;;;5055015;28;20225;-68
2022/02/09 02:05:31;;;;;;;7.43;3.37;;;5.60;99.90;;;;;;5055214;28;20638;-69
2022/02/09 02:08:00;;;;;;;6.07;3.07;;;5.60;99.90;;;;;;5042052;28;20271;-68
2022/02/09 02:10:37;;;;;;;8.43;3.00;;;5.50;99.90;;;;;;5055227;28;20229;-69
2022/02/09 02:13:19;;;;;;;6.53;3.57;;;5.50;99.90;;;;;;5055436;28;20835;-68
2022/02/09 02:18:32;;;;;;;10.33;3.30;;;5.50;99.90;;;;;;5053572;28;20217;-68
2022/02/09 02:21:11;;;;;;;6.03;2.90;;;5.50;99.90;;;;;;5054116;28;20280;-68
2022/02/09 02:23:57;;;;;;;4.57;3.00;;;5.50;99.90;;;;;;5055260;28;20552;-67
2022/02/09 02:26:38;;;;;;;7.80;2.93;;;5.50;99.90;;;;;;5054647;28;20209;-68
2022/02/09 02:29:26;;;;;;;8.60;3.00;;;5.50;99.90;;;;;;5054195;28;20202;-68
2022/02/09 02:32:25;;;;;;;7.47;3.40;;;5.50;99.90;;;;;;5051273;28;20228;-68
2022/02/09 02:38:13;;;;;;;7.50;2.57;;;5.60;99.90;;;;;;5008206;28;20203;-68
2022/02/09 02:57:31;;;;;;;7.17;2.73;;;5.60;99.90;;;;;;5054719;28;20213;-69
2022/02/09 03:08:34;;;;;;;9.10;2.70;;;5.70;99.90;;;;;;5044055;28;20197;-69
2022/02/09 03:11:21;;;;;;;6.00;2.73;;;5.60;99.90;;;;;;5053888;28;20201;-68
2022/02/09 03:13:54;;;;;;;6.53;2.70;;;5.60;99.90;;;;;;5046309;28;20202;-68
2022/02/09 03:16:30;;;;;;;9.40;3.13;;;5.60;99.90;;;;;;5049013;28;20221;-69
2022/02/09 03:22:01;;;;;;;6.83;2.17;;;5.60;99.90;;;;;;5047225;28;20244;-69
2022/02/09 03:24:39;;;;;;;7.87;2.80;;;5.60;99.90;;;;;;5058283;28;20221;-68
2022/02/09 03:27:26;;;;;;;9.13;2.80;;;5.60;99.90;;;;;;5053687;28;20251;-68
2022/02/09 03:47:05;;;;;;;6.77;2.93;;;5.50;99.90;;;;;;5089188;28;20561;-68
2022/02/09 03:49:42;;;;;;;8.30;3.67;;;5.50;99.90;;;;;;5083197;28;20209;-69
2022/02/09 03:52:31;;;;;;;5.90;3.57;;;5.50;99.90;;;;;;5080080;28;20242;-68
2022/02/09 03:55:06;;;;;;;7.53;3.80;;;5.50;99.90;;;;;;5073111;28;20229;-67
2022/02/09 03:57:44;;;;;;;6.90;3.77;;;5.50;99.90;;;;;;5088449;28;20200;-68
2022/02/09 04:00:12;;;;;;;9.57;4.60;;;5.50;99.90;;;;;;5086204;28;20196;-68
2022/02/09 04:02:41;;;;;;;11.07;4.43;;;5.50;99.90;;;;;;5084257;28;20201;-67
2022/02/09 04:05:08;;;;;;;8.27;4.83;;;5.60;99.90;;;;;;5078037;28;20221;-67
2022/02/09 04:07:35;;;;;;;9.33;4.60;;;5.60;99.90;;;;;;5075642;28;20721;-67
2022/02/09 04:10:03;;;;;;;7.97;4.73;;;5.60;99.90;;;;;;5086675;28;20283;-69
2022/02/09 04:12:36;;;;;;;7.13;5.17;;;5.60;99.90;;;;;;5083718;28;20299;-68
2022/02/09 04:15:17;;;;;;;9.43;4.47;;;5.60;99.90;;;;;;5087402;28;20213;-68
2022/02/09 04:17:59;;;;;;;7.67;4.90;;;5.60;99.90;;;;;;5078344;28;20278;-67
2022/02/09 04:22:22;;;;;;;11.83;5.50;;;5.50;99.90;;;;;;5079133;28;20271;-68
2022/02/09 04:37:00;;;;;;;10.23;6.23;;;5.50;99.90;;;;;;5070562;28;20204;-69
2022/02/09 04:39:33;;;;;;;10.57;5.90;;;5.40;99.90;;;;;;5070238;28;20209;-69
2022/02/09 04:44:57;;;;;;;9.80;6.30;;;5.50;99.90;;;;;;5086718;28;20244;-68
2022/02/09 04:47:33;;;;;;;11.73;6.40;;;5.40;99.90;;;;;;5084237;28;20209;-67
2022/02/09 04:50:16;;;;;;;10.70;6.37;;;5.30;99.90;;;;;;5075430;28;20731;-68
2022/02/09 04:53:00;;;;;;;8.90;6.10;;;5.30;99.90;;;;;;5076156;28;20201;-68
2022/02/09 04:58:15;;;;;;;13.27;6.13;;;5.30;99.90;;;;;;5050619;28;20672;-68
2022/02/09 05:00:51;;;;;;;13.30;5.50;;;5.20;99.90;;;;;;5059290;28;20224;-68
2022/02/09 05:28:07;;;;;;;11.03;5.43;;;5.00;99.90;;;;;;5055272;28;20263;-68
2022/02/09 05:30:34;;;;;;;10.57;5.03;;;4.90;99.90;;;;;;5068069;28;20205;-68
2022/02/09 05:33:01;;;;;;;8.80;5.40;;;4.90;99.90;;;;;;5068365;28;20205;-68
2022/02/09 05:35:28;;;;;;;10.90;6.00;;;4.80;99.90;;;;;;5059730;28;20573;-69
2022/02/09 05:37:57;;;;;;;12.60;5.67;;;4.80;99.90;;;;;;5060233;28;20232;-68
2022/02/09 05:40:25;;;;;;;12.37;5.20;;;4.80;99.90;;;;;;5060591;28;20212;-68
2022/02/09 05:42:52;;;;;;;10.60;5.77;;;4.80;99.90;;;;;;5068740;28;20209;-68
2022/02/09 05:45:22;;;;;;;11.13;5.30;;;4.80;99.90;;;;;;5060755;28;20337;-68
2022/02/09 05:48:10;;;;;;;9.57;5.80;;;4.80;99.90;;;;;;5066914;28;20228;-68
2022/02/09 05:50:46;;;;;;;9.90;5.30;;;4.80;99.90;;;;;;5061189;28;20206;-67
2022/02/09 05:53:18;;;;;;;10.70;5.20;;;4.80;99.90;;;;;;5072191;28;20204;-68
2022/02/09 05:55:48;;;;;;;9.43;4.97;;;4.80;99.90;;;;;;5061727;28;20339;-68
2022/02/09 05:58:33;;;;;;;14.13;5.87;;;4.80;99.90;;;;;;5057463;28;20202;-67
2022/02/09 06:01:01;;;;;;;11.50;5.20;;;4.80;99.90;;;;;;5052287;28;20204;-67
2022/02/09 06:03:28;;;;;;;10.13;5.10;;;4.80;99.90;;;;;;5053377;28;20216;-67
2022/02/09 06:05:55;;;;;;;11.13;4.97;;;4.90;99.90;;;;;;5053401;28;20252;-69
2022/02/09 06:08:24;;;;;;;9.43;5.47;;;4.90;99.90;;;;;;5052837;28;20210;-69
2022/02/09 06:11:02;;;;;;;12.73;5.27;;;4.90;99.90;;;;;;5056712;28;20205;-68
2022/02/09 06:13:45;;;;;;;10.10;4.63;;;4.90;99.90;;;;;;5064128;28;20296;-68
2022/02/09 06:19:39;;;;;;;9.00;4.87;;;4.90;99.90;;;;;;5056514;28;20252;-68
2022/02/09 06:21:45;;;;;;;7.03;4.10;;;5.00;99.90;;;;;;5060461;28;20224;-68
2022/02/09 06:24:13;;;;;;;10.03;4.30;;;5.10;99.90;;;;;;5060076;28;20202;-69
2022/02/09 06:26:40;;;;;;;7.07;4.43;;;5.00;99.90;;;;;;5059522;28;20240;-70
2022/02/09 06:29:08;;;;;;;9.47;4.30;;;5.00;99.90;;;;;;5058378;28;20206;-71
2022/02/09 06:31:36;;;;;;;8.17;4.47;;;5.00;99.90;;;;;;5063113;28;20293;-70
2022/02/09 06:34:03;;;;;;;8.93;4.43;;;5.00;99.90;;;;;;5059329;28;20205;-72
2022/02/09 06:36:33;;;;;;;7.43;4.13;;;5.00;99.90;;;;;;5053759;28;20238;-70
2022/02/09 06:39:05;;;;;;;7.80;4.37;;;5.00;99.90;;;;;;5060707;28;20202;-71
2022/02/09 06:41:33;;;;;;;7.27;4.20;;;4.90;99.90;;;;;;5061296;28;20210;-71
2022/02/09 06:44:01;;;;;;;8.60;4.30;;;5.00;99.90;;;;;;5060269;28;20208;-71
2022/02/09 06:46:32;;;;;;;9.47;4.63;;;4.90;99.90;;;;;;5063525;28;20829;-70
2022/02/09 06:49:04;;;;;;;9.80;4.60;;;4.90;99.90;;;;;;5062405;28;20305;-71
2022/02/09 06:51:34;;;;;;;11.20;5.10;;;4.90;99.90;;;;;;5054577;28;20224;-72
2022/02/09 06:54:04;;;;;;;9.83;4.73;;;4.90;99.90;;;;;;5058813;28;20209;-74
2022/02/09 06:56:58;;;;;;;12.47;4.97;;;4.90;99.90;;;;;;5059514;28;20209;-70
2022/02/09 06:59:30;;;;;;;6.73;4.37;;;4.90;99.90;;;;;;5059050;28;20193;-70
2022/02/09 07:01:59;;;;;;;12.63;5.00;;;4.90;99.90;;;;;;5061920;28;20276;-70
2022/02/09 07:04:26;;;;;;;9.00;4.53;;;4.90;99.90;;;;;;5066327;28;20210;-70
2022/02/09 07:06:55;;;;;;;8.57;4.53;;;4.80;99.90;;;;;;5066838;28;20251;-71
2022/02/09 07:09:22;;;;;;;8.87;4.60;;;4.90;99.90;;;;;;5064847;28;20213;-72
2022/02/09 07:11:51;;;;;;;9.70;4.90;;;4.90;99.90;;;;;;5058302;28;20251;-71
2022/02/09 07:14:22;;;;;;;13.37;4.93;;;4.90;99.90;;;;;;5062074;28;20330;-71
2022/02/09 07:16:49;;;;;;;10.40;3.80;;;4.90;99.90;;;;;;5061857;28;20193;-69
2022/02/09 07:19:16;;;;;;;5.93;3.80;;;4.90;99.90;;;;;;5057317;28;20220;-69
2022/02/09 07:21:44;;;;;;;10.97;4.57;;;5.00;99.90;;;;;;5072380;28;20304;-72
2022/02/09 07:24:13;;;;;;;8.20;3.90;;;5.00;99.90;;;;;;5074485;28;20197;-71
2022/02/09 07:26:51;;;;;;;8.23;3.83;;;5.10;99.90;;;;;;5069821;28;20592;-70
2022/02/09 07:29:20;;;;;;;9.50;4.10;;;5.20;99.90;;;;;;5061236;28;20209;-70
2022/02/09 07:31:47;;;;;;;9.73;3.93;;;5.30;99.90;;;;;;5057557;28;20202;-72
2022/02/09 07:34:15;;;;;;;8.03;3.77;;;5.40;99.90;;;;;;5059369;28;20284;-72
2022/02/09 07:36:45;;;;;;;6.93;3.80;;;5.50;99.90;;;;;;5061879;28;20725;-73
2022/02/09 07:39:13;;;;;;;9.70;4.40;;;5.60;99.90;;;;;;5057332;28;20297;-72
2022/02/09 07:41:43;;;;;;;8.60;3.50;;;5.90;99.90;;;;;;5071142;28;20213;-71
2022/02/09 07:44:30;;;;;;;12.50;5.23;;;6.10;99.90;;;;;;5058031;28;20276;-69
2022/02/09 07:47:09;;;;;;;10.10;4.73;;;6.20;99.90;;;;;;5061742;28;20216;-69
2022/02/09 07:49:51;;;;;;;10.13;4.27;;;6.40;99.90;;;;;;5069628;28;20270;-72
2022/02/09 07:52:26;;;;;;;8.33;3.90;;;6.60;99.90;;;;;;5065530;28;20206;-71
2022/02/09 07:54:54;;;;;;;8.40;4.47;;;6.70;99.90;;;;;;5055765;28;20658;-70
2022/02/09 07:57:22;;;;;;;8.10;4.20;;;6.70;99.90;;;;;;5070802;28;20291;-70
2022/02/09 07:59:49;;;;;;;7.27;3.67;;;6.60;99.90;;;;;;5063224;28;20206;-69
2022/02/09 08:02:18;;;;;;;9.53;4.20;;;6.70;99.90;;;;;;5070267;28;20298;-71
2022/02/09 08:04:44;;;;;;;6.63;3.63;;;6.80;99.90;;;;;;5066890;28;20247;-71
2022/02/09 08:07:12;;;;;;;7.93;3.77;;;7.00;99.90;;;;;;5071401;28;20251;-70
2022/02/09 08:09:42;;;;;;;12.33;5.40;;;7.20;99.90;;;;;;5057495;28;20205;-70
2022/02/09 08:21:36;;;;;;;8.70;4.30;;;8.00;99.90;;;;;;5066919;28;20225;-71
2022/02/09 08:23:39;;;;;;;8.37;3.97;;;8.20;99.90;;;;;;5059343;28;20201;-71
2022/02/09 08:28:51;;;;;;;12.43;4.40;;;8.50;99.90;;;;;;5069437;28;20204;-71
2022/02/09 08:31:48;;;;;;;7.30;3.80;;;8.50;99.90;;;;;;5067249;28;20201;-72
2022/02/09 08:34:16;;;;;;;8.80;4.30;;;8.50;99.90;;;;;;5065983;28;20284;-72
2022/02/09 08:36:43;;;;;;;11.17;4.83;;;8.50;99.90;;;;;;5075122;28;20242;-72
2022/02/09 08:39:10;;;;;;;8.80;4.30;;;8.50;99.90;;;;;;5075817;28;20215;-72
2022/02/09 08:41:37;;;;;;;9.27;4.70;;;8.60;99.90;;;;;;5060777;28;20202;-72
2022/02/09 08:44:06;;;;;;;9.33;4.77;;;8.70;99.90;;;;;;5057451;28;20202;-72
2022/02/09 08:46:34;;;;;;;9.40;4.30;;;8.80;99.90;;;;;;5057086;28;20230;-72
2022/02/09 08:49:00;;;;;;;9.50;5.00;;;8.90;99.90;;;;;;5075732;28;20209;-72
2022/02/09 08:51:29;;;;;;;8.40;4.30;;;9.00;99.90;;;;;;5060937;28;20666;-72
2022/02/09 08:53:56;;;;;;;11.07;4.70;;;9.10;99.90;;;;;;5072478;28;20220;-73
2022/02/09 08:56:27;;;;;;;8.90;4.50;;;9.30;99.90;;;;;;5063404;28;20202;-72
2022/02/09 08:58:55;;;;;;;8.10;4.33;;;9.50;99.90;;;;;;5064507;28;20525;-71
2022/02/09 09:01:33;;;;;;;6.60;4.57;;;9.90;99.90;;;;;;5067901;28;20213;-71
2022/02/09 09:04:04;;;;;;;9.27;4.90;;;10.10;99.90;;;;;;5066544;28;20229;-72
2022/02/09 09:06:38;;;;;;;7.63;4.50;;;10.40;99.90;;;;;;5066717;28;20304;-71
2022/02/09 09:09:21;;;;;;;8.77;4.03;;;10.50;99.90;;;;;;5059060;28;20212;-72
2022/02/09 09:15:30;;;;;;;6.70;3.60;;;10.60;99.90;;;;;;5047606;28;20292;-72
2022/02/09 09:40:23;;;;;;;5.57;3.50;;;10.20;99.90;;;;;;5056831;28;20320;-71
2022/02/09 10:02:43;;;;;;;10.30;4.00;;;8.60;99.90;;;;;;5068058;28;20188;-70
2022/02/09 10:05:37;;;;;;;8.87;4.57;;;8.60;99.90;;;;;;5066345;28;20224;-71
2022/02/09 10:33:17;;;;;;;10.23;6.60;;;8.50;99.90;;;;;;5067693;28;20664;-69
2022/02/09 10:35:59;;;;;;;7.77;5.40;;;8.60;99.90;;;;;;5068310;28;20649;-69
2022/02/09 10:38:30;;;;;;;8.30;6.40;;;8.60;99.90;;;;;;5061416;28;20309;-69
2022/02/09 10:41:10;;;;;;;9.10;6.70;;;8.60;99.90;;;;;;5060841;28;20276;-70
2022/02/09 10:43:37;;;;;;;8.50;6.00;;;8.60;99.90;;;;;;5057101;28;20212;-69
2022/02/09 10:46:16;;;;;;;9.30;5.63;;;8.60;99.90;;;;;;5060810;28;20320;-70
2022/02/09 10:48:50;;;;;;;10.87;6.20;;;8.60;99.90;;;;;;5060900;28;20620;-70
2022/02/09 10:51:31;;;;;;;10.00;5.90;;;8.60;99.90;;;;;;5061086;28;20232;-69
2022/02/09 10:54:07;;;;;;;8.73;5.83;;;8.60;99.90;;;;;;5055798;28;20697;-69
2022/02/09 10:56:36;;;;;;;8.00;5.60;;;8.60;99.90;;;;;;5057160;28;20561;-69
2022/02/09 10:59:04;;;;;;;9.27;5.60;;;8.70;99.90;;;;;;5057626;28;20288;-69
2022/02/09 11:01:35;;;;;;;10.33;5.60;;;8.70;99.90;;;;;;5061729;28;20201;-68
2022/02/09 11:04:02;;;;;;;6.67;4.90;;;9.00;99.90;;;;;;5057200;28;20666;-69
2022/02/09 11:06:33;;;;;;;11.53;5.60;;;9.10;99.90;;;;;;5059256;28;20316;-70
2022/02/09 11:09:01;;;;;;;7.93;5.23;;;9.10;99.90;;;;;;5054981;28;20241;-70
2022/02/09 11:11:29;;;;;;;9.70;5.73;;;9.00;99.90;;;;;;5059835;28;20213;-70
2022/02/09 11:13:56;;;;;;;9.90;5.03;;;9.00;99.90;;;;;;5062160;28;20212;-70
2022/02/09 11:16:24;;;;;;;7.50;4.80;;;8.90;99.90;;;;;;5058481;28;20230;-69
2022/02/09 11:18:54;;;;;;;6.73;4.90;;;8.80;99.90;;;;;;5058864;28;20296;-69
2022/02/09 11:21:29;;;;;;;7.73;5.37;;;8.70;99.90;;;;;;5059464;28;20275;-71
2022/02/09 11:23:58;;;;;;;9.57;5.47;;;8.60;99.90;;;;;;5054269;28;20205;-69
2022/02/09 11:26:41;;;;;;;8.87;4.87;;;8.50;99.90;;;;;;5055207;28;20327;-70
2022/02/09 11:29:27;;;;;;;8.43;4.77;;;8.40;99.90;;;;;;5054750;28;20232;-70
2022/02/09 11:32:18;;;;;;;8.73;5.30;;;8.30;99.90;;;;;;5059176;28;20221;-71
2022/02/09 11:35:31;;;;;;;6.50;4.20;;;8.20;99.90;;;;;;5057670;28;20616;-70
2022/02/09 11:40:48;;;;;;;7.03;4.37;;;8.10;99.90;;;;;;5057162;28;20674;-70
2022/02/09 11:43:43;;;;;;;5.83;4.37;;;7.60;99.90;;;;;;5055719;28;20665;-69
2022/02/09 11:46:27;;;;;;;8.43;4.30;;;8.00;99.90;;;;;;5058626;28;20638;-69
2022/02/09 11:52:12;;;;;;;6.23;4.03;;;7.90;99.90;;;;;;5057324;28;20263;-71
2022/02/09 12:10:14;;;;;;;9.13;5.50;;;7.80;99.90;;;;;;5068832;28;20198;-69
2022/02/09 12:12:46;;;;;;;7.13;5.10;;;7.90;99.90;;;;;;5065858;28;20292;-69
2022/02/09 12:18:57;;;;;;;8.37;5.40;;;7.90;99.90;;;;;;5059344;28;20267;-71
2022/02/09 12:21:38;;;;;;;7.93;5.17;;;7.90;99.90;;;;;;5072209;28;20287;-69
2022/02/09 12:24:26;;;;;;;8.67;5.50;;;8.00;99.90;;;;;;5066179;28;20292;-70
2022/02/09 12:26:58;;;;;;;8.13;6.13;;;8.00;99.90;;;;;;5057357;28;20261;-70
2022/02/09 12:29:30;;;;;;;8.83;5.77;;;8.00;99.90;;;;;;5064741;28;20210;-70
2022/02/09 12:31:57;;;;;;;9.77;6.53;;;8.00;99.90;;;;;;5066494;28;20558;-70
2022/02/09 12:34:28;;;;;;;10.40;6.27;;;8.00;99.90;;;;;;5067403;28;20211;-69
2022/02/09 12:36:55;;;;;;;11.87;7.17;;;8.00;99.90;;;;;;5059384;28;20239;-70
2022/02/09 12:39:23;;;;;;;10.00;7.33;;;8.00;99.90;;;;;;5061760;28;20745;-71
2022/02/09 12:41:53;;;;;;;10.07;6.90;;;7.90;99.90;;;;;;5066658;28;20194;-70
2022/02/09 12:44:23;;;;;;;11.10;7.53;;;8.00;99.90;;;;;;5061701;28;20260;-69
2022/02/09 12:46:50;;;;;;;12.13;8.23;;;7.90;99.90;;;;;;5071031;28;20319;-71
2022/02/09 12:49:19;;;;;;;12.13;8.30;;;8.00;99.90;;;;;;5057212;28;20216;-71
2022/02/09 12:51:50;;;;;;;12.63;7.83;;;8.00;99.90;;;;;;5076053;28;20662;-72
2022/02/09 12:54:19;;;;;;;12.50;8.50;;;8.00;99.90;;;;;;5072516;28;20201;-70
2022/02/09 12:56:49;;;;;;;13.53;9.43;;;8.00;99.90;;;;;;5070078;28;20292;-70
2022/02/09 12:59:18;;;;;;;12.60;9.13;;;8.00;99.90;;;;;;5076583;28;20205;-69
2022/02/09 13:01:49;;;;;;;14.10;9.43;;;8.00;99.90;;;;;;5061662;28;20206;-71
2022/02/09 13:04:30;;;;;;;13.83;9.80;;;8.00;99.90;;;;;;5062665;28;20198;-70
2022/02/09 13:06:59;;;;;;;11.50;8.97;;;8.10;99.90;;;;;;5060909;28;20260;-73
2022/02/09 13:09:27;;;;;;;11.77;9.57;;;8.10;99.90;;;;;;5062521;28;20314;-70
2022/02/09 13:11:54;;;;;;;13.43;10.10;;;8.10;99.90;;;;;;5057470;28;20206;-71
2022/02/09 13:14:35;;;;;;;14.57;10.23;;;8.10;99.90;;;;;;5073578;28;20228;-71
2022/02/09 13:17:27;;;;;;;13.37;10.47;;;8.10;99.90;;;;;;5076825;28;20262;-70
2022/02/09 13:25:57;;;;;;;14.83;9.70;;;8.20;99.90;;;;;;5066847;28;20576;-70
2022/02/09 14:03:15;;;;;;;12.87;10.87;;;8.30;99.90;;;;;;5069373;28;20520;-70
2022/02/09 14:06:43;;;;;;;12.10;10.63;;;8.30;99.90;;;;;;5068411;28;20202;-71
2022/02/09 14:53:07;;;;;;;14.33;11.30;;;8.40;99.90;;;;;;5045232;28;20676;-71
2022/02/09 14:55:48;;;;;;;18.27;12.37;;;8.40;99.90;;;;;;5057145;28;20198;-71
2022/02/09 14:58:22;;;;;;;15.63;12.43;;;8.40;99.90;;;;;;5064753;28;20190;-70
2022/02/09 15:00:57;;;;;;;14.10;11.47;;;8.40;99.90;;;;;;5061403;28;20593;-71
2022/02/09 15:03:45;;;;;;;15.33;12.20;;;8.40;99.90;;;;;;5062855;28;20209;-71
2022/02/09 15:06:43;;;;;;;13.07;10.70;;;8.40;99.90;;;;;;5059393;28;20206;-71
2022/02/09 15:09:15;;;;;;;14.53;11.40;;;8.40;99.90;;;;;;5055786;28;20250;-70
2022/02/09 15:11:54;;;;;;;13.03;11.40;;;8.40;99.90;;;;;;5058743;28;20234;-70
2022/02/09 15:14:28;;;;;;;12.43;11.13;;;8.40;99.90;;;;;;5059328;28;20626;-71
2022/02/09 15:17:05;;;;;;;14.80;11.47;;;8.40;99.90;;;;;;5060662;28;20206;-71
2022/02/09 15:19:55;;;;;;;15.10;11.40;;;8.40;99.90;;;;;;5060431;28;20764;-70
2022/02/09 15:22:23;;;;;;;14.83;12.00;;;8.50;99.90;;;;;;5064468;28;20224;-71
2022/02/09 15:24:51;;;;;;;12.70;11.40;;;8.40;99.90;;;;;;5060090;28;20309;-71
2022/02/09 15:27:20;;;;;;;13.80;12.27;;;8.40;99.90;;;;;;5070462;28;20232;-71
2022/02/09 15:29:49;;;;;;;13.30;11.37;;;8.40;99.90;;;;;;5065471;28;20205;-70
2022/02/09 15:32:27;;;;;;;14.63;10.97;;;8.40;99.90;;;;;;5062731;28;20228;-70
2022/02/09 15:34:59;;;;;;;14.00;10.90;;;8.40;99.90;;;;;;5078008;28;20205;-71
2022/02/09 15:37:35;;;;;;;16.90;12.83;;;8.40;99.90;;;;;;5063676;28;20197;-71
2022/02/09 15:40:09;;;;;;;13.07;10.70;;;8.40;99.90;;;;;;5062134;28;20212;-70
2022/02/09 15:43:00;;;;;;;13.30;10.00;;;8.40;99.90;;;;;;5061872;28;20198;-71
2022/02/09 15:56:32;;;;;;;10.40;8.77;;;8.20;99.90;;;;;;5054212;28;20201;-71
2022/02/09 16:24:10;;;;;;;11.13;8.80;;;8.10;99.90;;;;;;5056686;28;20205;-69
2022/02/09 16:38:11;;;;;;;14.10;10.00;;;8.10;99.90;;;;;;5109189;27;20552;-69
2022/02/09 16:46:16;;;;;;;11.70;8.83;;;8.10;99.90;;;;;;5097696;28;20196;-70
2022/02/09 16:48:49;;;;;;;11.87;8.73;;;8.10;99.90;;;;;;5103500;28;20199;-70
2022/02/09 16:51:19;;;;;;;11.50;8.77;;;8.10;99.90;;;;;;5099007;28;20649;-70
2022/02/09 16:53:56;;;;;;;11.87;9.13;;;8.10;99.90;;;;;;5098693;28;20254;-70
2022/02/09 16:56:37;;;;;;;15.13;10.33;;;8.10;99.90;;;;;;5090179;28;20703;-70
2022/02/09 17:18:43;;;;;;;11.83;9.10;;;8.10;99.90;;;;;;5094208;28;20203;-69
2022/02/09 17:21:11;;;;;;;12.67;9.30;;;8.10;99.90;;;;;;5096838;28;20243;-70
2022/02/09 17:23:38;;;;;;;11.03;8.37;;;8.00;99.90;;;;;;5093834;28;20300;-70
2022/02/09 17:26:08;;;;;;;11.00;8.43;;;8.10;99.90;;;;;;5088695;28;20265;-70
2022/02/09 17:28:35;;;;;;;10.93;8.33;;;8.10;99.90;;;;;;5089292;28;20236;-70
2022/02/09 17:31:10;;;;;;;12.07;8.80;;;8.10;99.90;;;;;;5098464;28;20291;-71
2022/02/09 17:33:58;;;;;;;10.20;8.20;;;8.10;99.90;;;;;;5095017;28;20673;-71
2022/02/09 17:36:38;;;;;;;12.17;8.93;;;8.10;99.90;;;;;;5093532;28;20243;-70
2022/02/09 17:39:20;;;;;;;12.10;8.60;;;8.10;99.90;;;;;;5091327;28;20223;-69
2022/02/09 17:55:55;;;;;;;13.73;9.17;;;8.20;99.90;;;;;;5072517;28;20204;-72
2022/02/09 17:58:28;;;;;;;12.03;8.63;;;8.10;99.90;;;;;;5067878;28;20255;-71
2022/02/09 18:00:56;;;;;;;11.80;8.90;;;8.20;99.90;;;;;;5072814;28;20299;-72
2022/02/09 18:03:23;;;;;;;12.23;8.90;;;8.20;99.90;;;;;;5068574;28;20205;-72
2022/02/09 18:05:52;;;;;;;12.47;9.00;;;8.20;99.90;;;;;;5081228;28;20296;-73
2022/02/09 18:08:25;;;;;;;11.20;9.13;;;8.20;99.90;;;;;;5078641;28;20585;-71
2022/02/09 18:11:05;;;;;;;11.53;8.40;;;8.20;99.90;;;;;;5071262;28;20227;-71
2022/02/09 18:30:20;;;;;;;10.17;7.80;;;8.20;99.90;;;;;;5072811;28;20248;-69
2022/02/09 18:33:11;;;;;;;10.93;7.87;;;8.20;99.90;;;;;;5076528;28;20200;-70
2022/02/09 18:44:06;;;;;;;8.63;6.60;;;8.20;99.90;;;;;;5060114;28;20292;-72
2022/02/09 18:46:43;;;;;;;9.50;7.03;;;8.20;99.90;;;;;;5078540;28;20212;-71
2022/02/09 19:00:25;;;;;;;12.30;7.80;;;8.30;99.90;;;;;;5072776;28;20177;-73
2022/02/09 19:03:00;;;;;;;8.70;6.73;;;8.30;99.90;;;;;;5076443;28;20243;-73
2022/02/09 19:05:32;;;;;;;11.07;7.37;;;8.30;99.90;;;;;;5075926;28;20198;-72
2022/02/09 19:08:17;;;;;;;8.57;6.63;;;8.30;99.90;;;;;;5068776;28;20205;-72
2022/02/09 19:16:45;;;;;;;9.00;5.80;;;8.30;99.90;;;;;;5070862;28;20554;-73
2022/02/09 19:30:39;;;;;;;8.47;6.33;;;8.30;99.90;;;;;;5074265;28;20241;-72
2022/02/09 19:46:55;;;;;;;9.30;6.30;;;8.40;99.90;;;;;;5074813;28;20224;-73
2022/02/09 19:49:38;;;;;;;9.57;6.83;;;8.60;99.90;;;;;;5073992;28;20205;-73
2022/02/09 19:52:16;;;;;;;8.93;6.00;;;8.30;99.90;;;;;;5077564;28;20231;-73
2022/02/09 19:54:58;;;;;;;7.60;5.40;;;8.30;99.90;;;;;;5069869;28;20208;-73
2022/02/09 19:57:26;;;;;;;9.23;6.30;;;8.30;99.90;;;;;;5073895;28;20213;-74
2022/02/09 19:59:54;;;;;;;9.37;6.93;;;8.30;99.90;;;;;;5075661;28;20216;-75
2022/02/09 20:02:21;;;;;;;8.17;5.87;;;8.30;99.90;;;;;;5075510;28;20299;-74
2022/02/09 20:04:52;;;;;;;8.20;5.97;;;8.30;99.90;;;;;;5075149;28;20658;-74
2022/02/09 20:07:21;;;;;;;9.77;6.50;;;8.30;99.90;;;;;;5072435;28;20217;-74
2022/02/09 20:09:48;;;;;;;8.97;5.50;;;8.30;99.90;;;;;;5074655;28;20207;-74
2022/02/09 20:12:15;;;;;;;6.93;5.70;;;8.30;99.90;;;;;;5086190;28;20700;-74
2022/02/09 20:14:46;;;;;;;10.70;5.97;;;8.20;99.90;;;;;;5076742;28;20550;-74
2022/02/09 20:17:13;;;;;;;8.33;5.30;;;8.20;99.90;;;;;;5070023;28;20576;-73
2022/02/09 20:19:42;;;;;;;7.43;5.23;;;8.20;99.90;;;;;;5079895;28;20218;-75
2022/02/09 20:22:09;;;;;;;8.70;5.80;;;8.20;99.90;;;;;;5082498;28;20236;-72
2022/02/09 20:24:38;;;;;;;8.17;5.80;;;8.20;99.90;;;;;;5080805;28;20318;-74
2022/02/09 20:27:06;;;;;;;7.57;5.50;;;8.20;99.90;;;;;;5078347;28;20249;-74
2022/02/09 20:29:36;;;;;;;7.23;5.03;;;8.20;99.90;;;;;;5080447;28;20252;-74
2022/02/09 20:32:15;;;;;;;7.20;5.03;;;8.20;99.90;;;;;;5077534;28;20205;-73
2022/02/09 20:34:49;;;;;;;7.07;5.40;;;8.20;99.90;;;;;;5083543;28;20723;-71
2022/02/09 20:37:17;;;;;;;8.10;5.60;;;8.20;99.90;;;;;;5073198;28;20239;-71
2022/02/09 20:39:55;;;;;;;7.53;5.57;;;8.20;99.90;;;;;;5081437;28;20266;-72
2022/02/09 20:42:23;;;;;;;8.80;5.73;;;8.20;99.90;;;;;;5082758;28;20208;-70
2022/02/09 20:44:55;;;;;;;6.80;5.37;;;8.20;99.90;;;;;;5078187;28;20212;-71
2022/02/09 20:47:22;;;;;;;8.60;5.87;;;8.20;99.90;;;;;;5075124;28;20684;-72
2022/02/09 20:49:49;;;;;;;7.57;5.50;;;8.20;99.90;;;;;;5077701;28;20217;-71
2022/02/09 20:52:16;;;;;;;7.17;5.43;;;8.20;99.90;;;;;;5073915;28;20208;-70
2022/02/09 20:54:45;;;;;;;7.33;5.40;;;8.20;99.90;;;;;;5080850;28;20208;-71
2022/02/09 20:57:12;;;;;;;8.40;6.00;;;8.20;99.90;;;;;;5065108;28;20226;-71
2022/02/09 20:59:44;;;;;;;8.63;5.40;;;8.20;99.90;;;;;;5064847;28;20205;-76
2022/02/09 21:02:32;;;;;;;7.67;5.23;;;8.20;99.90;;;;;;5079494;28;20219;-72
2022/02/09 21:05:19;;;;;;;9.83;5.53;;;8.20;99.90;;;;;;5062861;28;20259;-71
2022/02/09 21:07:55;;;;;;;8.03;6.10;;;8.20;99.90;;;;;;5080181;28;20188;-71
2022/02/09 21:10:39;;;;;;;8.73;5.77;;;8.20;99.90;;;;;;5085826;28;20637;-72
2022/02/09 21:13:13;;;;;;;6.97;5.50;;;8.20;99.90;;;;;;5078409;28;20204;-70
2022/02/09 21:15:52;;;;;;;7.60;5.63;;;8.20;99.90;;;;;;5081100;28;20201;-72
2022/02/09 21:21:21;;;;;;;10.07;6.27;;;8.10;99.90;;;;;;5077191;28;20250;-70
2022/02/09 21:54:15;;;;;;;8.93;6.07;;;8.00;99.90;;;;;;5069520;28;20229;-69
2022/02/09 21:56:47;;;;;;;8.10;6.20;;;8.00;99.90;;;;;;5079367;28;20197;-71
2022/02/09 21:59:35;;;;;;;8.90;6.50;;;8.00;99.90;;;;;;5076092;28;20237;-70
2022/02/09 22:21:44;;;;;;;9.47;6.57;;;8.00;99.90;;;;;;5067877;28;20697;-72
2022/02/09 22:27:21;;;;;;;9.77;6.47;;;8.00;99.90;;;;;;5065530;28;20237;-71
2022/02/09 22:49:21;;;;;;;8.67;6.70;;;8.00;99.90;;;;;;5071028;28;20791;-73
2022/02/09 22:54:39;;;;;;;8.60;7.30;;;8.00;99.90;;;;;;5064270;28;20193;-68
2022/02/09 22:57:06;;;;;;;10.03;7.00;;;7.90;99.90;;;;;;5061835;28;20628;-72
2022/02/09 22:59:40;;;;;;;9.43;6.80;;;7.90;99.90;;;;;;5070244;28;20209;-71
2022/02/09 23:02:11;;;;;;;8.93;6.80;;;7.90;99.90;;;;;;5072536;28;20220;-71
2022/02/09 23:04:47;;;;;;;8.87;7.07;;;7.90;99.90;;;;;;5064549;28;20354;-69
2022/02/09 23:07:23;;;;;;;8.00;6.30;;;7.90;99.90;;;;;;5079628;28;20236;-69
2022/02/09 23:10:02;;;;;;;10.23;7.23;;;7.90;99.90;;;;;;5059925;28;20669;-69
2022/02/09 23:12:37;;;;;;;8.47;6.63;;;7.90;99.90;;;;;;5072156;28;20207;-69
2022/02/09 23:15:19;;;;;;;11.80;7.43;;;7.90;99.90;;;;;;5070039;28;20595;-69
2022/02/09 23:27:00;;;;;;;10.50;7.60;;;7.90;99.90;;;;;;5057545;28;20205;-69
2022/02/09 23:58:06;;;;;;;9.10;7.10;;;7.80;99.90;;;;;;5047030;28;20301;-68
